Time,TemperatureF,DewpointF,PressureIn,WindDirection,WindDirectionDegrees,WindSpeedMPH,WindSpeedGustMPH,Humidity,HourlyPrecipIn,Conditions,Clouds,dailyrainin,SoftwareType,DateUTC
2016-09-28 00:05:00,51.0,43.0,-100.00,South,175,0.0,0.0,75,-99.99,,,-99.99,,2016-09-28 04:05:00,
2016-09-28 00:14:00,50.0,42.0,-100.00,South,175,0.0,0.0,76,-99.99,,,-99.99,,2016-09-28 04:14:00,
2016-09-28 00:35:00,49.0,43.0,-100.00,South,175,0.0,0.0,78,-99.99,,,-99.99,,2016-09-28 04:35:00,
2016-09-28 01:00:00,49.0,42.0,-100.00,South,185,0.0,-999.0,76,-99.99,,,-99.99,,2016-09-28 05:00:00,
2016-09-28 01:10:00,49.0,42.0,-100.00,South,175,0.0,1.0,76,-99.99,,,-99.99,,2016-09-28 05:10:00,
2016-09-28 02:07:00,47.0,42.0,-100.00,NNE,20,0.0,-999.0,82,-99.99,,,-99.99,,2016-09-28 06:07:00,
2016-09-28 02:17:00,47.0,42.0,-100.00,NNE,30,0.0,0.0,82,-99.99,,,-99.99,,2016-09-28 06:17:00,
2016-09-28 02:37:00,47.0,43.0,-100.00,South,175,0.0,0.0,83,-99.99,,,-99.99,,2016-09-28 06:37:00,
2016-09-28 02:45:00,47.0,43.0,-100.00,NE,50,0.0,-999.0,83,-99.99,,,-99.99,,2016-09-28 06:45:00,
2016-09-28 02:55:00,47.0,43.0,-100.00,East,80,0.0,0.0,85,-99.99,,,-99.99,,2016-09-28 06:55:00,
2016-09-28 03:08:00,47.0,43.0,-100.00,East,80,0.0,-999.0,85,-99.99,,,-99.99,,2016-09-28 07:08:00,
2016-09-28 03:15:00,47.0,43.0,-100.00,ENE,75,0.0,0.0,87,-99.99,,,-99.99,,2016-09-28 07:15:00,
2016-09-28 03:35:00,47.0,43.0,-100.00,East,80,0.0,0.0,87,-99.99,,,-99.99,,2016-09-28 07:35:00,
2016-09-28 03:48:00,47.0,43.0,-100.00,ENE,60,0.0,0.0,87,-99.99,,,-99.99,,2016-09-28 07:48:00,
2016-09-28 03:57:00,48.0,43.0,-100.00,SSE,150,0.0,-999.0,85,-99.99,,,-99.99,,2016-09-28 07:57:00,
2016-09-28 04:04:00,47.0,43.0,-100.00,NNE,15,0.0,0.0,85,-99.99,,,-99.99,,2016-09-28 08:04:00,
2016-09-28 04:13:00,47.0,43.0,-100.00,NNE,15,0.0,0.0,87,-99.99,,,-99.99,,2016-09-28 08:13:00,
2016-09-28 04:34:00,46.0,43.0,-100.00,NNE,15,0.0,0.0,89,-99.99,,,-99.99,,2016-09-28 08:34:00,
2016-09-28 04:44:00,46.0,43.0,-100.00,NNW,340,0.0,0.0,88,-99.99,,,-99.99,,2016-09-28 08:44:00,
2016-09-28 04:54:00,46.0,43.0,-100.00,East,100,0.0,0.0,89,-99.99,,,-99.99,,2016-09-28 08:54:00,
2016-09-28 05:04:00,46.0,43.0,-100.00,East,100,0.0,-999.0,89,-99.99,,,-99.99,,2016-09-28 09:04:00,
2016-09-28 05:14:00,46.0,43.0,-100.00,ENE,75,0.0,0.0,89,-99.99,,,-99.99,,2016-09-28 09:14:00,
2016-09-28 05:44:00,47.0,43.0,-100.00,SSE,165,0.0,1.0,86,-99.99,,,-99.99,,2016-09-28 09:44:00,
2016-09-28 06:05:00,46.0,43.0,-100.00,North,10,0.0,0.0,89,-99.99,,,-99.99,,2016-09-28 10:05:00,
2016-09-28 06:16:00,46.0,43.0,-100.00,North,10,0.0,0.0,89,-99.99,,,-99.99,,2016-09-28 10:16:00,
2016-09-28 06:35:00,46.0,43.0,-100.00,NNE,20,0.0,0.0,90,-99.99,,,-99.99,,2016-09-28 10:35:00,
2016-09-28 06:44:00,46.0,43.0,-100.00,North,355,0.0,0.0,90,-99.99,,,-99.99,,2016-09-28 10:44:00,
2016-09-28 07:06:00,46.0,43.0,-100.00,NNE,25,0.0,2.0,89,-99.99,,,-99.99,,2016-09-28 11:06:00,
2016-09-28 07:16:00,46.0,43.0,-100.00,North,10,0.0,0.0,90,-99.99,,,-99.99,,2016-09-28 11:16:00,
2016-09-28 07:28:00,45.0,42.0,-100.00,North,10,0.0,-999.0,90,-99.99,,,-99.99,,2016-09-28 11:28:00,
2016-09-28 07:45:00,45.0,42.0,-100.00,East,80,0.0,0.0,90,-99.99,,,-99.99,,2016-09-28 11:45:00,
2016-09-28 07:55:00,45.0,42.0,-100.00,North,5,0.0,0.0,90,-99.99,,,-99.99,,2016-09-28 11:55:00,
2016-09-28 08:06:00,45.0,42.0,-100.00,NNE,30,0.0,0.0,90,-99.99,,,-99.99,,2016-09-28 12:06:00,
2016-09-28 08:15:00,46.0,43.0,-100.00,East,100,0.0,0.0,88,-99.99,,,-99.99,,2016-09-28 12:15:00,
2016-09-28 08:37:00,50.0,45.0,-100.00,SE,145,0.0,0.0,81,-99.99,,,-99.99,,2016-09-28 12:37:00,
2016-09-28 08:47:00,49.0,45.0,-100.00,North,0,0.0,0.0,85,-99.99,,,-99.99,,2016-09-28 12:47:00,
2016-09-28 08:55:00,49.0,45.0,-100.00,North,0,0.0,0.0,85,-99.99,,,-99.99,,2016-09-28 12:55:00,
2016-09-28 09:05:00,50.0,45.0,-100.00,WSW,250,0.0,0.0,83,-99.99,,,-99.99,,2016-09-28 13:05:00,
2016-09-28 09:15:00,50.0,45.0,-100.00,WSW,255,0.0,-999.0,82,-99.99,,,-99.99,,2016-09-28 13:15:00,
2016-09-28 09:36:00,53.0,45.0,-100.00,SW,220,0.0,0.0,73,-99.99,,,-99.99,,2016-09-28 13:36:00,
2016-09-28 09:45:00,55.0,46.0,-100.00,ENE,60,0.0,1.0,74,-99.99,,,-99.99,,2016-09-28 13:45:00,
2016-09-28 09:59:00,56.0,47.0,-100.00,NE,50,0.0,0.0,72,-99.99,,,-99.99,,2016-09-28 13:59:00,
2016-09-28 10:04:00,56.0,46.0,-100.00,SW,220,0.0,0.0,69,-99.99,,,-99.99,,2016-09-28 14:04:00,
2016-09-28 10:14:00,57.0,47.0,-100.00,SSE,160,0.0,0.0,70,-99.99,,,-99.99,,2016-09-28 14:14:00,
2016-09-28 10:35:00,59.0,47.0,-100.00,SSE,160,0.0,0.0,63,-99.99,,,-99.99,,2016-09-28 14:35:00,
2016-09-28 10:46:00,61.0,46.0,-100.00,South,170,1.0,-999.0,59,-99.99,,,-99.99,,2016-09-28 14:46:00,
2016-09-28 11:04:00,61.0,48.0,-100.00,South,190,1.0,3.0,62,-99.99,,,-99.99,,2016-09-28 15:04:00,
2016-09-28 11:14:00,64.0,47.0,-100.00,SSE,150,0.0,2.0,55,-99.99,,,-99.99,,2016-09-28 15:14:00,
2016-09-28 11:35:00,64.0,47.0,-100.00,ESE,110,1.0,4.0,54,-99.99,,,-99.99,,2016-09-28 15:35:00,
2016-09-28 12:05:00,69.0,46.0,-100.00,SSW,210,2.0,6.0,45,-99.99,,,-99.99,,2016-09-28 16:05:00,
2016-09-28 12:25:00,70.0,46.0,-100.00,SSW,195,1.0,-999.0,42,-99.99,,,-99.99,,2016-09-28 16:25:00,
2016-09-28 13:09:00,69.0,45.0,-100.00,South,170,4.0,8.0,42,-99.99,,,-99.99,,2016-09-28 17:09:00,
2016-09-28 13:48:00,72.0,43.0,-100.00,SSE,152,5.0,-999.0,35,-99.99,,,-99.99,,2016-09-28 17:48:00,
2016-09-28 14:08:00,72.0,41.0,-100.00,South,180,2.0,7.0,33,-99.99,,,-99.99,,2016-09-28 18:08:00,
2016-09-28 14:16:00,72.0,45.0,-100.00,South,190,4.0,8.0,39,-99.99,,,-99.99,,2016-09-28 18:16:00,
2016-09-28 14:46:00,73.0,45.0,-100.00,South,185,4.0,8.0,37,-99.99,,,-99.99,,2016-09-28 18:46:00,